Time;durP1;ratioP1;P1;durP2;ratioP2;P2;SDS_P1;SDS_P2;PMS_P1;PMS_P2;Temp;Humidity;BMP_temperature;BMP_pressure;BME280_temperature;BME280_humidity;BME280_pressure;Samples;Min_cycle;Max_cycle;Signal;HPM_P1;HPM_P2
2021/06/23 00:01:57;;;;;;;24.87;7.03;;;;;;;23.75;81.78;99620.06;6250785;28;20045;-57
2021/06/23 00:04:58;;;;;;;33.13;7.40;;;;;;;23.78;81.49;99618.91;6262024;28;20053;-57
2021/06/23 00:07:58;;;;;;;24.93;6.57;;;;;;;23.77;83.85;99615.41;6245360;28;20275;-58
2021/06/23 00:11:01;;;;;;;33.92;7.20;;;;;;;23.72;85.64;99621.28;6245288;28;20439;-58
2021/06/23 00:14:02;;;;;;;29.83;6.93;;;;;;;23.69;84.71;99610.19;6245400;28;20045;-59
2021/06/23 00:17:03;;;;;;;25.48;7.30;;;;;;;23.66;84.55;99608.72;6246477;28;20561;-58
2021/06/23 00:20:05;;;;;;;32.55;6.95;;;;;;;23.60;84.07;99611.31;6246391;28;20163;-57
2021/06/23 00:23:06;;;;;;;30.88;7.15;;;;;;;23.53;83.67;99613.91;6245128;28;20412;-58
2021/06/23 00:26:07;;;;;;;27.70;7.30;;;;;;;23.54;83.66;99626.22;6246423;28;20069;-57
2021/06/23 00:29:08;;;;;;;30.53;7.13;;;;;;;23.57;83.28;99615.16;6245050;28;20047;-57
2021/06/23 00:32:13;;;;;;;24.27;6.57;;;;;;;23.61;82.99;99612.97;6246374;28;20488;-59
2021/06/23 00:35:15;;;;;;;28.13;7.90;;;;;;;23.62;82.22;99620.78;6246290;28;20400;-59
2021/06/23 00:38:16;;;;;;;24.98;7.63;;;;;;;23.64;82.13;99616.09;6244858;28;20051;-59
2021/06/23 00:41:18;;;;;;;19.63;7.10;;;;;;;23.62;82.08;99611.97;6246882;28;20041;-59
2021/06/23 00:44:19;;;;;;;20.67;6.47;;;;;;;23.62;82.26;99611.97;6269759;28;20045;-59
2021/06/23 00:47:24;;;;;;;29.33;7.53;;;;;;;23.63;82.28;99616.25;6272207;28;20039;-59
2021/06/23 00:50:26;;;;;;;31.05;7.75;;;;;;;23.62;82.44;99623.44;6275927;28;20128;-58
2021/06/23 00:53:28;;;;;;;22.73;6.03;;;;;;;23.67;81.60;99615.69;6275880;28;20049;-59
2021/06/23 00:56:31;;;;;;;;;;;;;;;23.69;81.97;99611.00;6274815;28;20340;-58
2021/06/23 00:59:33;;;;;;;22.98;6.75;;;;;;;23.70;81.86;99620.66;6275349;28;19927;-59
2021/06/23 01:02:35;;;;;;;28.63;6.85;;;;;;;23.67;81.85;99615.69;6274329;28;20036;-59
2021/06/23 01:05:38;;;;;;;23.10;7.20;;;;;;;23.66;81.52;99608.72;6257832;28;20044;-59
2021/06/23 01:08:40;;;;;;;26.98;7.63;;;;;;;23.61;81.74;99620.94;6253926;28;20041;-59
2021/06/23 01:12:08;;;;;;;27.00;7.40;;;;;;;23.54;82.44;99619.03;6250420;28;20041;-58
2021/06/23 01:15:12;;;;;;;28.20;8.02;;;;;;;23.37;83.29;99620.28;6250310;28;20480;-59
2021/06/23 01:18:13;;;;;;;22.75;7.22;;;;;;;23.23;84.02;99611.31;6250319;28;20049;-59
2021/06/23 01:21:14;;;;;;;32.08;10.07;;;;;;;23.03;85.03;99619.06;6250173;28;20096;-59
2021/06/23 01:24:15;;;;;;;23.83;7.97;;;;;;;22.96;85.50;99617.28;6250288;28;20041;-58
2021/06/23 01:27:16;;;;;;;26.80;7.40;;;;;;;22.85;85.85;99613.25;6232498;28;20046;-59
2021/06/23 01:30:17;;;;;;;25.27;7.60;;;;;;;22.79;86.11;99616.66;6248875;28;20087;-59
2021/06/23 01:33:18;;;;;;;25.00;7.45;;;;;;;22.62;87.08;99622.13;6249963;28;20071;-59
2021/06/23 01:36:19;;;;;;;27.75;6.53;;;;;;;22.52;87.55;99622.41;6248947;28;20492;-59
2021/06/23 01:39:20;;;;;;;27.55;8.25;;;;;;;22.45;88.25;99621.47;6249763;28;20049;-59
2021/06/23 01:42:21;;;;;;;21.40;7.32;;;;;;;22.37;88.64;99624.22;6256169;28;20408;-59
2021/06/23 01:45:23;;;;;;;39.80;8.27;;;;;;;22.37;88.50;99624.22;6274579;28;20583;-58
2021/06/23 01:48:26;;;;;;;30.50;7.65;;;;;;;22.28;88.91;99634.09;6273333;28;20073;-58
2021/06/23 01:51:27;;;;;;;29.35;7.85;;;;;;;22.26;88.95;99636.13;6273195;28;20407;-58
2021/06/23 01:54:28;;;;;;;32.97;7.80;;;;;;;22.25;88.89;99645.06;6273105;28;20048;-58
2021/06/23 01:57:30;;;;;;;25.43;8.00;;;;;;;22.24;89.17;99647.94;6231748;28;20443;-59
2021/06/23 02:00:45;;;;;;;21.13;7.20;;;;;;;22.20;89.22;99643.94;6248317;28;20060;-59
2021/06/23 02:04:06;;;;;;;21.27;7.03;;;;;;;22.16;89.31;99646.13;6248427;28;20125;-58
2021/06/23 02:07:09;;;;;;;23.92;7.47;;;;;;;22.09;89.61;99653.16;6249336;28;20041;-59
2021/06/23 02:10:49;;;;;;;27.30;7.50;;;;;;;22.08;89.70;99656.81;6249238;28;20049;-58
2021/06/23 02:13:52;;;;;;;40.30;7.63;;;;;;;22.05;89.78;99668.63;6249103;28;20048;-58
2021/06/23 02:16:54;;;;;;;19.35;7.65;;;;;;;22.03;89.91;99667.13;6249268;28;20040;-58
2021/06/23 02:19:57;;;;;;;19.55;6.85;;;;;;;22.00;90.00;99665.69;6248893;28;20408;-59
2021/06/23 02:22:58;;;;;;;27.73;7.63;;;;;;;21.98;89.97;99665.03;6248849;28;20067;-59
2021/06/23 02:25:59;;;;;;;28.47;8.03;;;;;;;21.96;89.93;99666.22;6248832;28;20385;-59
2021/06/23 02:29:00;;;;;;;31.13;9.07;;;;;;;21.94;90.26;99667.19;6248684;28;20318;-59
2021/06/23 02:32:03;;;;;;;22.75;7.53;;;;;;;21.96;89.99;99668.88;6248544;28;20048;-58
2021/06/23 02:35:05;;;;;;;26.23;7.97;;;;;;;21.98;89.85;99669.50;6248781;28;20041;-59
2021/06/23 02:38:06;;;;;;;30.33;8.15;;;;;;;21.99;89.55;99672.00;6260921;28;20051;-59
2021/06/23 02:41:07;;;;;;;30.55;8.43;;;;;;;22.02;89.63;99671.63;6230970;28;20084;-58
2021/06/23 02:44:08;;;;;;;32.38;8.60;;;;;;;22.05;89.25;99679.25;6247215;28;20037;-59
2021/06/23 02:47:15;;;;;;;30.10;8.15;;;;;;;22.03;89.40;99672.44;6248593;28;20085;-58
2021/06/23 02:50:16;;;;;;;23.15;7.78;;;;;;;21.96;89.93;99682.16;6248161;28;20053;-58
2021/06/23 02:53:18;;;;;;;26.57;8.50;;;;;;;21.91;90.13;99672.06;6246981;28;20403;-59
2021/06/23 02:56:20;;;;;;;28.45;8.00;;;;;;;21.91;90.12;99686.16;6248155;28;20286;-59
2021/06/23 02:59:21;;;;;;;;;;;;;;;21.95;90.08;99686.63;6248199;28;20060;-59
2021/06/23 03:02:21;;;;;;;29.25;8.70;;;;;;;21.94;90.39;99684.97;6247907;28;19921;-59
2021/06/23 03:05:22;;;;;;;27.90;7.90;;;;;;;21.97;90.18;99681.97;6247823;28;20061;-59
2021/06/23 03:08:23;;;;;;;27.30;7.57;;;;;;;22.01;89.72;99685.09;6263578;28;20103;-59
2021/06/23 03:11:23;;;;;;;30.23;8.23;;;;;;;21.98;91.83;99696.91;6247613;28;20052;-58
2021/06/23 03:14:24;;;;;;;28.70;8.83;;;;;;;21.92;92.81;99701.06;6247917;28;20054;-58
2021/06/23 03:17:25;;;;;;;24.43;8.30;;;;;;;21.96;92.53;99706.88;6230035;28;20068;-58
2021/06/23 03:20:26;;;;;;;26.43;8.20;;;;;;;21.98;92.11;99712.84;6247505;28;20052;-59
2021/06/23 03:23:27;;;;;;;30.80;8.37;;;;;;;21.83;91.65;99734.00;6247474;28;20559;-58
2021/06/23 03:26:28;;;;;;;26.25;8.00;;;;;;;21.94;92.54;99712.34;6246194;28;20045;-58
2021/06/23 03:29:33;;;;;;;27.50;8.82;;;;;;;21.95;91.83;99715.84;6262589;28;20042;-58
2021/06/23 03:32:34;;;;;;;26.15;8.35;;;;;;;21.91;91.85;99730.50;6247193;28;20443;-58
2021/06/23 03:35:34;;;;;;;28.97;8.87;;;;;;;21.97;92.98;99721.81;6246020;28;20041;-58
2021/06/23 03:38:35;;;;;;;27.60;8.20;;;;;;;22.01;93.17;99724.94;6245983;28;20076;-58
2021/06/23 03:41:36;;;;;;;27.87;8.80;;;;;;;22.03;92.52;99733.56;6247104;28;20120;-57
2021/06/23 03:44:37;;;;;;;24.67;7.67;;;;;;;22.07;93.44;99733.03;6245950;28;20053;-58
2021/06/23 03:47:39;;;;;;;28.67;8.60;;;;;;;22.03;93.09;99737.06;6262314;28;20057;-58
2021/06/23 03:50:41;;;;;;;22.58;8.23;;;;;;;22.13;93.16;99747.44;6245749;28;20072;-59
2021/06/23 03:53:42;;;;;;;30.88;8.35;;;;;;;22.20;93.82;99747.56;6246729;28;20056;-59
2021/06/23 03:56:43;;;;;;;28.60;9.55;;;;;;;22.20;92.36;99745.75;6245935;28;20059;-59
2021/06/23 03:59:44;;;;;;;20.80;8.67;;;;;;;22.26;91.54;99749.56;6246567;28;20333;-58
2021/06/23 04:02:45;;;;;;;23.40;8.80;;;;;;;22.29;92.60;99755.31;6246735;28;20049;-58
2021/06/23 04:05:46;;;;;;;29.73;8.43;;;;;;;22.35;93.26;99751.16;6245420;28;20045;-58
2021/06/23 04:08:46;;;;;;;31.30;9.50;;;;;;;22.41;92.42;99760.25;6245494;28;20291;-58
2021/06/23 04:11:47;;;;;;;28.07;9.23;;;;;;;22.48;90.63;99748.69;6245380;28;20041;-59
2021/06/23 04:14:48;;;;;;;43.67;9.57;;;;;;;22.54;89.40;99757.81;6247286;28;20037;-58
2021/06/23 04:17:49;;;;;;;38.33;9.73;;;;;;;22.61;89.40;99752.59;6246540;28;20046;-58
2021/06/23 04:20:49;;;;;;;34.70;10.33;;;;;;;22.64;89.47;99753.06;6228932;28;20056;-57
2021/06/23 04:23:50;;;;;;;31.20;8.57;;;;;;;22.71;89.21;99758.50;6244689;28;20041;-57
2021/06/23 04:26:51;;;;;;;34.33;8.30;;;;;;;22.72;88.66;99760.97;6246400;28;20512;-57
2021/06/23 04:29:52;;;;;;;32.00;9.50;;;;;;;22.78;88.90;99755.97;6245207;28;20056;-57
2021/06/23 04:32:52;;;;;;;30.73;9.57;;;;;;;22.86;88.59;99756.72;6246374;28;20389;-57
2021/06/23 04:35:55;;;;;;;25.83;8.43;;;;;;;22.92;87.40;99760.47;6246465;28;20061;-57
2021/06/23 04:38:56;;;;;;;25.25;8.73;;;;;;;22.96;87.42;99760.94;6246224;28;20045;-57
2021/06/23 04:41:56;;;;;;;26.83;9.07;;;;;;;23.00;87.11;99765.72;6244996;28;20052;-57
2021/06/23 04:44:57;;;;;;;33.33;9.67;;;;;;;23.08;87.14;99770.16;6244924;28;20056;-57
2021/06/23 04:47:59;;;;;;;41.27;9.40;;;;;;;23.08;86.93;99773.66;6244826;28;20062;-59
2021/06/23 04:51:00;;;;;;;37.03;9.57;;;;;;;23.09;88.36;99769.97;6244704;28;20046;-59
2021/06/23 04:54:00;;;;;;;31.75;10.85;;;;;;;23.10;86.63;99774.31;6264888;28;20103;-58
2021/06/23 04:57:02;;;;;;;33.97;9.60;;;;;;;23.10;87.47;99786.75;6254416;28;20048;-58
2021/06/23 05:00:04;;;;;;;26.63;9.50;;;;;;;23.15;87.33;99787.06;6257257;28;20041;-59
2021/06/23 05:03:05;;;;;;;29.75;9.00;;;;;;;23.15;87.20;99780.91;6261357;28;20408;-59
2021/06/23 05:06:06;;;;;;;31.47;8.83;;;;;;;23.11;87.76;99783.09;6253272;28;20042;-59
2021/06/23 05:09:07;;;;;;;43.50;9.53;;;;;;;23.16;87.51;99788.69;6245925;28;20045;-59
2021/06/23 05:12:09;;;;;;;24.53;8.77;;;;;;;23.21;88.25;99788.16;6254503;28;20183;-59
2021/06/23 05:15:10;;;;;;;32.22;9.25;;;;;;;23.23;87.36;99784.31;6269552;28;20049;-58
2021/06/23 05:18:11;;;;;;;39.15;8.60;;;;;;;23.20;87.06;99800.63;6270402;28;20037;-59
2021/06/23 05:21:12;;;;;;;32.85;8.40;;;;;;;23.26;87.84;99796.41;6270306;28;20424;-58
2021/06/23 05:24:13;;;;;;;32.93;9.20;;;;;;;23.29;89.11;99798.72;6270365;28;20049;-59
2021/06/23 05:27:14;;;;;;;22.90;8.68;;;;;;;23.33;90.87;99794.69;6269727;28;20518;-58
2021/06/23 05:30:17;;;;;;;31.97;8.93;;;;;;;23.34;89.07;99793.69;6269067;28;20103;-59
2021/06/23 05:33:18;;;;;;;27.48;9.00;;;;;;;23.37;89.12;99811.09;6269125;28;20056;-59
2021/06/23 05:36:19;;;;;;;32.40;9.33;;;;;;;23.40;88.64;99805.44;6269320;28;20175;-59
2021/06/23 05:39:19;;;;;;;24.33;8.73;;;;;;;23.52;88.79;99809.28;6264248;28;20037;-58
2021/06/23 05:42:20;;;;;;;31.17;9.50;;;;;;;23.61;88.66;99808.19;6274707;28;20033;-58
2021/06/23 05:45:21;;;;;;;33.50;8.57;;;;;;;23.74;88.32;99811.03;6274030;28;20045;-58
2021/06/23 05:48:22;;;;;;;24.87;8.60;;;;;;;23.86;86.90;99815.91;6273572;28;20661;-59
2021/06/23 05:51:23;;;;;;;35.73;9.37;;;;;;;23.98;88.13;99814.41;6273290;28;20040;-58
2021/06/23 05:54:24;;;;;;;31.27;8.90;;;;;;;24.09;87.54;99813.09;6273068;28;20040;-59
2021/06/23 05:57:24;;;;;;;36.10;8.93;;;;;;;24.23;86.40;99817.56;6272878;28;20053;-59
2021/06/23 06:00:25;;;;;;;25.40;8.70;;;;;;;24.40;84.85;99818.19;6272992;28;20041;-59
2021/06/23 06:03:26;;;;;;;26.92;8.63;;;;;;;24.55;84.33;99822.66;6274084;28;20068;-59
2021/06/23 06:06:29;;;;;;;32.40;9.97;;;;;;;24.66;83.29;99824.81;6272899;28;20476;-59
2021/06/23 06:09:29;;;;;;;21.42;8.65;;;;;;;24.78;84.03;99823.28;6274256;28;20135;-59
2021/06/23 06:12:30;;;;;;;28.90;8.80;;;;;;;24.90;83.40;99820.94;6273880;28;20045;-59
2021/06/23 06:15:33;;;;;;;30.70;8.83;;;;;;;25.01;85.95;99828.41;6273902;28;20079;-59
2021/06/23 06:18:33;;;;;;;34.13;9.20;;;;;;;25.09;84.04;99830.09;6260164;28;20182;-59
2021/06/23 06:21:34;;;;;;;27.83;8.93;;;;;;;25.19;84.36;99837.78;6253724;28;20458;-59
2021/06/23 06:24:35;;;;;;;33.63;9.10;;;;;;;25.24;82.58;99833.53;6249005;28;20306;-58
2021/06/23 06:27:36;;;;;;;32.07;9.03;;;;;;;25.33;81.35;99831.56;6249051;28;20393;-58
2021/06/23 06:30:37;;;;;;;33.47;9.57;;;;;;;25.49;79.20;99833.91;6249233;28;20496;-57
2021/06/23 06:33:37;;;;;;;40.00;8.87;;;;;;;25.61;78.51;99839.50;6248645;28;20053;-59
2021/06/23 06:36:38;;;;;;;28.80;8.40;;;;;;;25.72;78.40;99836.31;6247818;28;20409;-60
2021/06/23 06:39:39;;;;;;;26.67;8.03;;;;;;;25.90;75.69;99846.50;6245630;28;20049;-58
2021/06/23 06:42:40;;;;;;;35.47;8.47;;;;;;;26.06;76.36;99852.50;6247077;28;20270;-58
2021/06/23 06:45:40;;;;;;;28.75;7.65;;;;;;;26.18;77.64;99858.13;6247704;28;20371;-59
2021/06/23 06:48:41;;;;;;;27.50;7.43;;;;;;;26.34;75.93;99863.13;6248154;28;20051;-59
2021/06/23 06:51:42;;;;;;;36.28;8.10;;;;;;;26.50;76.86;99857.41;6230462;28;20286;-59
2021/06/23 06:54:43;;;;;;;27.38;7.70;;;;;;;26.57;73.84;99854.75;6248011;28;20041;-59
2021/06/23 06:57:43;;;;;;;32.63;8.50;;;;;;;26.78;75.52;99853.75;6247810;28;20527;-59
2021/06/23 07:00:44;;;;;;;28.87;7.53;;;;;;;26.87;75.31;99857.06;6248218;28;20045;-59
2021/06/23 07:03:45;;;;;;;38.43;7.77;;;;;;;26.97;71.27;99851.31;6247667;28;20267;-59
2021/06/23 07:06:46;;;;;;;31.67;7.47;;;;;;;27.05;73.16;99853.78;6247629;28;20290;-59
2021/06/23 07:09:47;;;;;;;;;;;;;;;27.18;70.13;99859.13;6248011;28;20045;-59
2021/06/23 07:12:48;;;;;;;35.30;7.63;;;;;;;27.31;68.97;99858.31;6251148;28;19924;-59
2021/06/23 07:15:48;;;;;;;31.50;7.53;;;;;;;27.37;68.81;99854.00;6267077;28;20045;-59
2021/06/23 07:18:50;;;;;;;40.10;8.20;;;;;;;27.55;67.52;99854.19;6267806;28;20041;-59
2021/06/23 07:21:51;;;;;;;36.78;8.40;;;;;;;27.64;65.16;99852.09;6265474;28;20029;-59
2021/06/23 07:24:52;;;;;;;41.95;8.75;;;;;;;27.81;67.16;99863.97;6247133;28;20041;-59
2021/06/23 07:27:53;;;;;;;;;;;;;;;27.93;65.38;99858.81;6262800;28;20045;-59
2021/06/23 07:30:54;;;;;;;37.67;8.23;;;;;;;28.02;64.19;99848.69;6267465;28;19928;-59
2021/06/23 07:34:18;;;;;;;46.78;8.05;;;;;;;28.11;61.58;99850.09;6267434;28;20053;-59
2021/06/23 07:37:19;;;;;;;32.53;7.43;;;;;;;28.13;61.50;99848.84;6267828;28;20113;-59
2021/06/23 07:40:27;;;;;;;29.67;7.72;;;;;;;28.27;65.40;99854.13;6264927;28;20049;-58
2021/06/23 07:43:29;;;;;;;38.92;7.78;;;;;;;28.47;64.86;99860.22;6271743;28;20072;-59
2021/06/23 07:46:34;;;;;;;28.98;7.82;;;;;;;28.58;61.95;99858.75;6253997;28;20056;-58
2021/06/23 07:49:40;;;;;;;34.92;7.50;;;;;;;28.69;61.05;99860.72;6271864;28;20045;-58
2021/06/23 07:52:52;;;;;;;31.65;7.57;;;;;;;28.87;61.54;99867.22;6271560;28;20135;-59
2021/06/23 08:03:12;;;;;;;32.85;6.82;;;;;;;29.31;60.05;99871.63;6262014;28;20381;-59
2021/06/23 08:09:32;;;;;;;33.92;6.40;;;;;;;29.41;60.84;99875.69;6259540;28;20096;-59
2021/06/23 08:12:54;;;;;;;37.88;6.38;;;;;;;29.39;58.97;99877.75;6230095;28;20049;-57
2021/06/23 08:15:55;;;;;;;25.98;6.28;;;;;;;29.45;57.06;99885.75;6245158;28;20296;-57
2021/06/23 08:18:56;;;;;;;35.08;7.40;;;;;;;29.43;61.22;99887.84;6228766;28;20052;-57
2021/06/23 08:21:57;;;;;;;33.55;7.38;;;;;;;29.49;58.75;99891.53;6256360;28;20056;-58
2021/06/23 08:24:57;;;;;;;38.67;7.18;;;;;;;29.53;59.49;99888.16;6253713;28;20046;-57
2021/06/23 08:27:58;;;;;;;24.88;6.65;;;;;;;29.65;58.25;99890.09;6248952;28;20046;-57
2021/06/23 08:30:59;;;;;;;28.55;6.20;;;;;;;29.68;61.45;99890.47;6246850;28;20451;-57
2021/06/23 08:34:00;;;;;;;32.65;6.82;;;;;;;29.82;59.64;99888.50;6268407;28;20044;-58
2021/06/23 08:37:01;;;;;;;28.92;6.68;;;;;;;29.76;57.72;99886.72;6264794;28;20075;-58
2021/06/23 08:40:03;;;;;;;24.17;6.57;;;;;;;29.81;59.52;99886.84;6266275;28;20408;-57
2021/06/23 08:43:04;;;;;;;32.88;6.13;;;;;;;30.01;58.80;99883.94;6270685;28;20037;-58
2021/06/23 08:46:05;;;;;;;30.48;6.35;;;;;;;30.05;56.00;99885.13;6261002;28;20071;-57
2021/06/23 08:49:07;;;;;;;34.58;6.93;;;;;;;29.98;55.97;99884.41;6271651;28;20045;-58
2021/06/23 08:52:09;;;;;;;22.77;5.72;;;;;;;30.09;53.71;99891.72;6271911;28;20099;-57
2021/06/23 08:55:10;;;;;;;27.05;5.65;;;;;;;30.01;51.31;99886.63;6271472;28;20047;-58
2021/06/23 08:58:11;;;;;;;30.80;6.13;;;;;;;29.98;55.54;99883.56;6271663;28;20594;-57
2021/06/23 09:01:12;;;;;;;28.38;6.22;;;;;;;30.24;52.11;99893.19;6258095;28;20476;-53
2021/06/23 09:04:15;;;;;;;33.13;6.10;;;;;;;30.24;51.52;99888.63;6259117;28;20048;-56
2021/06/23 09:07:16;;;;;;;24.33;5.97;;;;;;;30.25;52.23;99894.81;6269295;28;20052;-58
2021/06/23 09:10:23;;;;;;;26.77;5.57;;;;;;;30.23;51.92;99892.38;6262269;28;20378;-57
2021/06/23 09:13:24;;;;;;;25.08;5.07;;;;;;;30.21;50.40;99893.63;6250490;28;20045;-57
2021/06/23 09:16:24;;;;;;;24.75;5.43;;;;;;;30.33;46.52;99891.84;6233264;28;20400;-57
2021/06/23 09:19:27;;;;;;;38.22;6.18;;;;;;;30.31;46.80;99891.25;6274008;28;20049;-57
2021/06/23 09:22:35;;;;;;;29.17;6.25;;;;;;;30.35;50.00;99888.94;6274997;28;20483;-58
2021/06/23 09:25:37;;;;;;;28.08;6.03;;;;;;;30.53;50.48;99897.78;6274964;28;20041;-56
2021/06/23 09:28:39;;;;;;;30.05;6.15;;;;;;;30.81;48.46;99900.94;6274707;28;20056;-59
2021/06/23 09:32:01;;;;;;;32.53;5.72;;;;;;;30.84;49.56;99895.88;6274841;28;20488;-56
2021/06/23 09:35:02;;;;;;;22.52;5.70;;;;;;;30.91;49.36;99904.72;6274710;28;20044;-56
2021/06/23 09:38:03;;;;;;;25.63;6.28;;;;;;;30.94;47.96;99895.34;6273385;28;20037;-58
2021/06/23 09:41:33;;;;;;;28.88;5.35;;;;;;;31.04;44.42;99898.28;6274514;28;20132;-58
2021/06/23 09:44:34;;;;;;;37.13;5.20;;;;;;;31.10;45.09;99896.56;6249419;28;20352;-59
2021/06/23 09:47:38;;;;;;;;;;;;;;;31.15;40.95;99901.25;6248876;28;20511;-58
2021/06/23 09:50:39;;;;;;;36.35;5.97;;;;;;;31.25;41.75;99896.09;6232488;28;19924;-58
2021/06/23 09:53:39;;;;;;;;;;;;;;;31.34;45.39;99892.00;6249918;28;20119;-58
2021/06/23 09:56:45;;;;;;;33.73;5.87;;;;;;;31.15;45.32;99896.66;6248244;28;19921;-58
2021/06/23 09:59:50;;;;;;;30.63;5.40;;;;;;;31.17;42.98;99891.06;6248008;28;20412;-58
2021/06/23 10:03:02;;;;;;;35.63;5.78;;;;;;;31.29;42.70;99894.56;6249390;28;20103;-58
2021/06/23 10:06:26;;;;;;;36.55;5.20;;;;;;;31.64;40.25;99893.78;6266191;28;20048;-58
2021/06/23 10:09:29;;;;;;;40.83;5.68;;;;;;;31.64;44.01;99889.19;6274015;28;20049;-59
2021/06/23 10:12:30;;;;;;;26.88;5.38;;;;;;;31.82;41.64;99882.03;6273802;28;20060;-59
2021/06/23 10:15:31;;;;;;;;;;;;;;;32.12;39.89;99889.94;6274151;28;20051;-58
2021/06/23 10:18:33;;;;;;;32.03;5.50;;;;;;;32.17;41.96;99879.25;6273579;28;19975;-71
2021/06/23 10:21:35;;;;;;;32.08;5.40;;;;;;;32.10;41.02;99882.09;6256667;28;20386;-58
2021/06/23 10:24:38;;;;;;;32.97;5.65;;;;;;;32.10;44.88;99884.81;6259347;28;20034;-59
2021/06/23 10:27:41;;;;;;;33.97;5.50;;;;;;;31.91;41.88;99886.78;6248685;28;20133;-59
2021/06/23 10:30:42;;;;;;;36.30;5.60;;;;;;;31.99;43.08;99893.75;6247571;28;20069;-59
2021/06/23 10:33:43;;;;;;;40.45;5.22;;;;;;;32.18;39.92;99885.47;6247552;28;20403;-59
2021/06/23 10:36:45;;;;;;;;;;;;;;;32.19;45.42;99879.03;6247852;28;20477;-59
2021/06/23 10:39:46;;;;;;;29.20;4.80;;;;;;;32.32;43.07;99887.63;6247264;28;19928;-59
2021/06/23 10:42:48;;;;;;;35.22;5.38;;;;;;;32.52;39.44;99887.22;6262695;28;20045;-59
2021/06/23 10:45:48;;;;;;;25.20;4.88;;;;;;;32.64;39.60;99878.28;6272990;28;20431;-59
2021/06/23 10:48:54;;;;;;;33.58;5.20;;;;;;;32.76;35.63;99880.88;6271171;28;20072;-60
2021/06/23 10:51:55;;;;;;;23.90;4.80;;;;;;;32.78;36.52;99879.59;6247024;28;20110;-59
2021/06/23 10:55:20;;;;;;;23.35;4.03;;;;;;;32.83;34.94;99879.66;6248092;28;20045;-60
2021/06/23 10:58:32;;;;;;;24.77;4.28;;;;;;;32.74;37.53;99875.75;6228986;28;20057;-60
2021/06/23 11:01:33;;;;;;;20.92;4.50;;;;;;;32.81;35.30;99873.69;6248105;28;20041;-60
2021/06/23 11:05:02;;;;;;;25.33;4.57;;;;;;;32.92;34.71;99877.38;6248046;28;20052;-60
2021/06/23 11:08:26;;;;;;;29.77;4.78;;;;;;;33.09;35.60;99880.09;6247755;28;20041;-59
2021/06/23 11:11:47;;;;;;;23.02;4.28;;;;;;;33.04;34.48;99874.59;6247994;28;20045;-60
2021/06/23 11:15:07;;;;;;;;;;;;;;;33.15;36.00;99884.53;6263479;28;20045;-59
2021/06/23 11:18:19;;;;;;;24.30;4.65;;;;;;;33.43;34.06;99877.38;6260088;28;19998;-59
2021/06/23 11:21:21;;;;;;;22.95;4.25;;;;;;;33.49;32.99;99888.00;6248772;28;20038;-59
2021/06/23 11:24:22;;;;;;;25.10;4.07;;;;;;;33.42;30.46;99873.88;6248079;28;20065;-59
2021/06/23 11:27:22;;;;;;;27.05;4.10;;;;;;;33.46;34.28;99866.88;6257836;28;20044;-59
2021/06/23 11:30:24;;;;;;;30.90;4.55;;;;;;;33.63;34.82;99871.47;6256554;28;20527;-59
2021/06/23 11:33:28;;;;;;;24.77;4.25;;;;;;;33.92;32.10;99870.22;6247279;28;20049;-59
2021/06/23 11:36:28;;;;;;;14.57;3.95;;;;;;;33.85;31.01;99866.88;6272656;28;20384;-59
2021/06/23 11:39:29;;;;;;;29.98;4.95;;;;;;;34.05;32.90;99873.59;6271369;28;20071;-59
2021/06/23 11:42:35;;;;;;;19.02;3.60;;;;;;;33.96;28.77;99875.94;6271562;28;20141;-59
2021/06/23 11:45:36;;;;;;;17.80;3.47;;;;;;;33.85;29.20;99872.31;6271343;28;20053;-59
2021/06/23 11:48:37;;;;;;;19.90;3.50;;;;;;;33.99;30.07;99870.00;6254382;28;20507;-59
2021/06/23 11:51:41;;;;;;;12.98;2.47;;;;;;;34.06;27.17;99876.06;6259007;28;20041;-59
2021/06/23 11:54:42;;;;;;;17.98;3.38;;;;;;;34.21;33.99;99872.72;6246724;28;20111;-59
2021/06/23 11:57:43;;;;;;;23.52;3.70;;;;;;;34.21;29.37;99875.44;6246976;28;20512;-60
2021/06/23 12:00:46;;;;;;;23.67;4.15;;;;;;;34.34;30.27;99876.91;6222011;28;20405;-59
2021/06/23 12:03:48;;;;;;;24.50;3.70;;;;;;;34.51;26.96;99865.97;6221025;28;20080;-60
2021/06/23 12:06:49;;;;;;;20.35;4.30;;;;;;;34.55;29.80;99872.53;6220817;28;20417;-59
2021/06/23 12:09:50;;;;;;;18.58;3.58;;;;;;;34.96;27.75;99883.75;6221964;28;20129;-59
2021/06/23 12:12:52;;;;;;;17.35;3.17;;;;;;;35.16;27.47;99876.88;6220913;28;20048;-59
2021/06/23 12:15:53;;;;;;;24.98;3.80;;;;;;;35.81;26.39;99880.25;6220750;28;20565;-60
2021/06/23 12:18:53;;;;;;;18.80;3.45;;;;;;;36.61;25.70;99871.78;6221736;28;20125;-60
2021/06/23 12:21:54;;;;;;;21.50;3.90;;;;;;;37.71;25.08;99878.53;6222102;28;20485;-57
2021/06/23 12:24:55;;;;;;;19.15;3.60;;;;;;;38.25;23.02;99879.63;6241778;28;20420;-57
2021/06/23 12:27:57;;;;;;;26.75;3.55;;;;;;;39.34;22.93;99891.34;6221747;28;20132;-57
2021/06/23 12:30:58;;;;;;;27.77;4.28;;;;;;;39.31;22.55;99890.03;6221723;28;20382;-57
2021/06/23 12:33:59;;;;;;;21.52;3.50;;;;;;;38.95;22.17;99887.59;6221678;28;20049;-57
2021/06/23 12:36:59;;;;;;;15.60;3.50;;;;;;;39.71;22.41;99890.69;6221599;28;20432;-57
2021/06/23 12:40:01;;;;;;;25.67;4.78;;;;;;;38.86;22.46;99878.41;6227352;28;20057;-58
2021/06/23 12:43:06;;;;;;;17.38;4.22;;;;;;;38.49;22.84;99877.03;6250240;28;20046;-58
2021/06/23 12:46:07;;;;;;;19.77;3.45;;;;;;;37.57;26.08;99870.09;6238966;28;20060;-57
2021/06/23 12:49:08;;;;;;;19.10;4.13;;;;;;;37.08;26.00;99870.72;6231198;28;20050;-57
2021/06/23 12:52:08;;;;;;;29.48;3.85;;;;;;;36.33;26.96;99867.69;6239094;28;20535;-57
2021/06/23 12:55:10;;;;;;;25.98;4.30;;;;;;;35.60;27.82;99871.97;6241341;28;20491;-57
2021/06/23 12:58:11;;;;;;;28.17;3.72;;;;;;;35.39;28.15;99868.34;6249543;28;20079;-57
2021/06/23 13:01:12;;;;;;;23.92;3.33;;;;;;;35.37;28.97;99869.69;6229741;28;20050;-57
2021/06/23 13:04:12;;;;;;;25.25;4.40;;;;;;;35.48;28.05;99874.09;6226177;28;20049;-57
2021/06/23 13:07:13;;;;;;;22.30;3.80;;;;;;;35.57;27.53;99867.09;6224818;28;20062;-59
2021/06/23 13:10:16;;;;;;;30.65;3.47;;;;;;;35.56;27.21;99867.34;6208530;28;20382;-59
2021/06/23 13:13:17;;;;;;;23.30;4.07;;;;;;;35.74;29.71;99868.81;6225902;28;20304;-60
2021/06/23 13:16:18;;;;;;;28.52;4.80;;;;;;;35.57;26.59;99866.28;6228287;28;20041;-58
2021/06/23 13:19:19;;;;;;;23.35;3.95;;;;;;;35.44;27.53;99862.97;6233076;28;20050;-59
2021/06/23 13:22:20;;;;;;;27.58;3.85;;;;;;;35.24;25.78;99863.66;6225709;28;20560;-58
2021/06/23 13:25:22;;;;;;;30.48;3.80;;;;;;;35.35;27.25;99866.44;6225711;28;20560;-59
2021/06/23 13:28:22;;;;;;;30.73;4.57;;;;;;;35.36;29.29;99858.03;6225494;28;20408;-59
2021/06/23 13:31:23;;;;;;;18.33;3.70;;;;;;;35.37;27.20;99856.13;6225236;28;20138;-59
2021/06/23 13:34:24;;;;;;;30.00;4.32;;;;;;;35.43;26.85;99857.78;6230620;28;20061;-58
2021/06/23 13:37:27;;;;;;;33.65;3.85;;;;;;;35.40;27.38;99851.00;6224228;28;20560;-58
2021/06/23 13:40:28;;;;;;;25.15;3.95;;;;;;;35.51;28.86;99854.59;6225077;28;20045;-58
2021/06/23 13:43:30;;;;;;;27.02;4.05;;;;;;;35.57;28.99;99869.81;6225062;28;20448;-59
2021/06/23 13:46:31;;;;;;;28.40;4.10;;;;;;;35.55;29.74;99861.13;6225088;28;20592;-59
2021/06/23 13:49:31;;;;;;;20.40;3.50;;;;;;;35.49;29.51;99859.44;6207395;28;20046;-59
2021/06/23 13:52:33;;;;;;;33.53;4.40;;;;;;;35.45;30.01;99861.06;6224784;28;20042;-59
2021/06/23 13:55:35;;;;;;;23.85;4.22;;;;;;;35.47;29.59;99856.19;6223419;28;20460;-59
2021/06/23 13:58:36;;;;;;;26.55;4.20;;;;;;;35.44;29.63;99849.41;6223303;28;20445;-58
2021/06/23 14:01:37;;;;;;;24.20;3.70;;;;;;;35.52;29.08;99848.06;6236793;28;20037;-59
2021/06/23 14:04:38;;;;;;;19.63;3.67;;;;;;;35.48;28.37;99850.50;6248166;28;20045;-58
2021/06/23 14:07:39;;;;;;;27.00;3.85;;;;;;;35.50;31.46;99842.91;6231927;28;20478;-59
2021/06/23 14:10:41;;;;;;;18.65;3.72;;;;;;;35.39;28.45;99845.84;6249089;28;20054;-59
2021/06/23 14:13:42;;;;;;;20.80;3.80;;;;;;;35.26;29.11;99844.41;6249199;28;20060;-61
2021/06/23 14:16:43;;;;;;;23.35;3.85;;;;;;;35.27;32.09;99843.31;6242311;28;20042;-59
2021/06/23 14:19:44;;;;;;;23.65;3.85;;;;;;;35.30;29.92;99838.19;6224263;28;20038;-60
2021/06/23 14:22:45;;;;;;;22.75;3.47;;;;;;;35.33;30.76;99841.47;6239551;28;20104;-58